sensor_id;sensor_type;location;lat;lon;timestamp;pressure;altitude;pressure_sealevel;temperature;humidity
31044;BME280;17710;52.520;13.352;2023-02-11T00:00:00;102578.94;;;8.15;51.25
31044;BME280;17710;52.520;13.352;2023-02-11T00:02:26;102585.88;;;7.93;51.86
31044;BME280;17710;52.520;13.352;2023-02-11T00:04:53;102572.72;;;7.91;51.85
31044;BME280;17710;52.520;13.352;2023-02-11T00:07:20;102569.13;;;7.82;51.87
31044;BME280;17710;52.520;13.352;2023-02-11T00:09:46;102580.53;;;7.78;52.53
31044;BME280;17710;52.520;13.352;2023-02-11T00:12:13;102584.91;;;7.77;52.27
31044;BME280;17710;52.520;13.352;2023-02-11T00:14:40;102591.09;;;7.79;52.21
31044;BME280;17710;52.520;13.352;2023-02-11T00:17:08;102597.97;;;7.62;52.82
31044;BME280;17710;52.520;13.352;2023-02-11T00:19:34;102610.34;;;7.74;52.71
31044;BME280;17710;52.520;13.352;2023-02-11T00:22:00;102614.69;;;7.66;53.22
31044;BME280;17710;52.520;13.352;2023-02-11T00:24:27;102604.19;;;7.75;52.94
31044;BME280;17710;52.520;13.352;2023-02-11T00:26:54;102587.47;;;7.60;53.32
31044;BME280;17710;52.520;13.352;2023-02-11T00:29:20;102575.31;;;7.88;52.58
31044;BME280;17710;52.520;13.352;2023-02-11T00:31:47;102565.56;;;7.66;53.06
31044;BME280;17710;52.520;13.352;2023-02-11T00:34:15;102563.06;;;7.87;52.60
31044;BME280;17710;52.520;13.352;2023-02-11T00:36:41;102562.06;;;7.66;52.93
31044;BME280;17710;52.520;13.352;2023-02-11T00:39:08;102560.34;;;7.77;53.08
31044;BME280;17710;52.520;13.352;2023-02-11T00:41:34;102565.72;;;7.98;52.65
31044;BME280;17710;52.520;13.352;2023-02-11T00:44:01;102556.88;;;7.84;53.19
31044;BME280;17710;52.520;13.352;2023-02-11T00:46:30;102560.41;;;7.86;53.21
31044;BME280;17710;52.520;13.352;2023-02-11T00:48:56;102584.16;;;7.98;53.04
31044;BME280;17710;52.520;13.352;2023-02-11T00:51:25;102585.09;;;8.12;52.55
31044;BME280;17710;52.520;13.352;2023-02-11T00:53:52;102577.22;;;8.18;52.54
31044;BME280;17710;52.520;13.352;2023-02-11T00:56:18;102579.84;;;8.24;52.49
31044;BME280;17710;52.520;13.352;2023-02-11T00:58:45;102570.19;;;8.19;52.46
31044;BME280;17710;52.520;13.352;2023-02-11T01:01:12;102570.22;;;8.26;52.40
31044;BME280;17710;52.520;13.352;2023-02-11T01:03:39;102567.56;;;8.20;52.65
31044;BME280;17710;52.520;13.352;2023-02-11T01:06:06;102566.69;;;8.23;52.38
31044;BME280;17710;52.520;13.352;2023-02-11T01:08:34;102548.22;;;8.21;52.58
31044;BME280;17710;52.520;13.352;2023-02-11T01:11:03;102536.81;;;8.16;52.96
31044;BME280;17710;52.520;13.352;2023-02-11T01:13:31;102531.59;;;8.25;53.07
31044;BME280;17710;52.520;13.352;2023-02-11T01:15:57;102522.75;;;8.11;53.94
31044;BME280;17710;52.520;13.352;2023-02-11T01:18:24;102512.25;;;8.23;53.46
31044;BME280;17710;52.520;13.352;2023-02-11T01:20:51;102498.22;;;8.24;53.70
31044;BME280;17710;52.520;13.352;2023-02-11T01:23:18;102497.34;;;8.25;53.56
31044;BME280;17710;52.520;13.352;2023-02-11T01:25:46;102499.94;;;8.15;53.67
31044;BME280;17710;52.520;13.352;2023-02-11T01:28:15;102503.44;;;8.05;53.75
31044;BME280;17710;52.520;13.352;2023-02-11T01:30:42;102504.34;;;8.19;53.39
31044;BME280;17710;52.520;13.352;2023-02-11T01:33:08;102494.66;;;8.15;53.60
31044;BME280;17710;52.520;13.352;2023-02-11T01:35:37;102495.56;;;8.15;53.44
31044;BME280;17710;52.520;13.352;2023-02-11T01:38:03;102486.81;;;8.30;53.07
31044;BME280;17710;52.520;13.352;2023-02-11T01:40:30;102490.34;;;8.35;52.83
31044;BME280;17710;52.520;13.352;2023-02-11T01:42:57;102492.94;;;8.12;53.40
31044;BME280;17710;52.520;13.352;2023-02-11T01:45:55;102489.41;;;8.16;53.30
31044;BME280;17710;52.520;13.352;2023-02-11T01:48:25;102471.81;;;7.92;54.24
31044;BME280;17710;52.520;13.352;2023-02-11T01:50:55;102452.41;;;7.63;55.21
31044;BME280;17710;52.520;13.352;2023-02-11T01:53:22;102463.00;;;7.74;55.00
31044;BME280;17710;52.520;13.352;2023-02-11T01:56:07;102476.16;;;7.80;54.95
31044;BME280;17710;52.520;13.352;2023-02-11T01:58:54;102477.09;;;8.01;54.22
31044;BME280;17710;52.520;13.352;2023-02-11T02:01:24;102481.53;;;8.25;53.90
31044;BME280;17710;52.520;13.352;2023-02-11T02:03:55;102473.63;;;8.28;53.81
31044;BME280;17710;52.520;13.352;2023-02-11T02:06:31;102461.38;;;8.30;53.73
31044;BME280;17710;52.520;13.352;2023-02-11T02:09:02;102450.81;;;8.14;54.35
31044;BME280;17710;52.520;13.352;2023-02-11T02:11:31;102466.63;;;8.20;54.32
31044;BME280;17710;52.520;13.352;2023-02-11T02:13:59;102466.66;;;8.49;53.74
31044;BME280;17710;52.520;13.352;2023-02-11T02:16:29;102463.06;;;8.21;54.55
31044;BME280;17710;52.520;13.352;2023-02-11T02:19:10;102468.41;;;8.44;54.11
31044;BME280;17710;52.520;13.352;2023-02-11T02:22:15;102455.25;;;8.39;54.25
31044;BME280;17710;52.520;13.352;2023-02-11T02:24:55;102461.41;;;8.33;54.84
31044;BME280;17710;52.520;13.352;2023-02-11T02:30:43;102457.00;;;8.38;55.15
31044;BME280;17710;52.520;13.352;2023-02-11T02:33:32;102460.50;;;8.31;55.42
31044;BME280;17710;52.520;13.352;2023-02-11T02:36:08;102449.09;;;8.43;54.94
31044;BME280;17710;52.520;13.352;2023-02-11T02:38:41;102435.94;;;8.51;55.18
31044;BME280;17710;52.520;13.352;2023-02-11T02:41:12;102447.31;;;8.25;55.90
31044;BME280;17710;52.520;13.352;2023-02-11T02:43:41;102439.44;;;8.34;55.80
31044;BME280;17710;52.520;13.352;2023-02-11T02:46:12;102432.41;;;8.65;55.00
31044;BME280;17710;52.520;13.352;2023-02-11T02:48:41;102416.63;;;8.53;55.29
31044;BME280;17710;52.520;13.352;2023-02-11T02:51:16;102413.13;;;8.47;55.16
31044;BME280;17710;52.520;13.352;2023-02-11T02:53:56;102428.91;;;8.36;56.03
31044;BME280;17710;52.520;13.352;2023-02-11T02:56:29;102429.78;;;8.55;55.40
31044;BME280;17710;52.520;13.352;2023-02-11T02:59:24;102428.03;;;8.43;55.62
31044;BME280;17710;52.520;13.352;2023-02-11T03:02:01;102421.00;;;8.59;55.92
31044;BME280;17710;52.520;13.352;2023-02-11T03:04:35;102412.22;;;8.64;55.63
31044;BME280;17710;52.520;13.352;2023-02-11T03:07:08;102409.56;;;8.67;55.60
31044;BME280;17710;52.520;13.352;2023-02-11T03:09:40;102403.44;;;8.65;55.63
31044;BME280;17710;52.520;13.352;2023-02-11T03:12:08;102413.09;;;8.44;56.44
31044;BME280;17710;52.520;13.352;2023-02-11T03:14:36;102418.38;;;8.44;56.68
31044;BME280;17710;52.520;13.352;2023-02-11T03:17:05;102408.72;;;8.52;56.25
31044;BME280;17710;52.520;13.352;2023-02-11T03:19:36;102396.41;;;8.52;56.17
31044;BME280;17710;52.520;13.352;2023-02-11T03:22:06;102399.00;;;8.75;55.64
31044;BME280;17710;52.520;13.352;2023-02-11T03:24:36;102409.53;;;8.90;55.36
31044;BME280;17710;52.520;13.352;2023-02-11T03:27:08;102405.09;;;9.01;55.18
31044;BME280;17710;52.520;13.352;2023-02-11T03:29:39;102408.66;;;8.76;55.99
31044;BME280;17710;52.520;13.352;2023-02-11T03:32:12;102402.53;;;8.75;56.11
31044;BME280;17710;52.520;13.352;2023-02-11T03:34:45;102411.31;;;8.67;56.36
31044;BME280;17710;52.520;13.352;2023-02-11T03:37:17;102413.03;;;8.80;56.06
31044;BME280;17710;52.520;13.352;2023-02-11T03:39:47;102402.50;;;8.74;56.31
31044;BME280;17710;52.520;13.352;2023-02-11T03:42:16;102401.66;;;8.76;55.96
31044;BME280;17710;52.520;13.352;2023-02-11T03:44:48;102389.38;;;8.71;56.50
31044;BME280;17710;52.520;13.352;2023-02-11T03:47:20;102398.13;;;8.84;56.42
31044;BME280;17710;52.520;13.352;2023-02-11T03:49:50;102401.66;;;8.63;57.00
31044;BME280;17710;52.520;13.352;2023-02-11T03:52:18;102406.03;;;8.70;56.91
31044;BME280;17710;52.520;13.352;2023-02-11T03:54:47;102405.16;;;8.66;57.25
31044;BME280;17710;52.520;13.352;2023-02-11T03:57:16;102410.44;;;8.63;57.37
31044;BME280;17710;52.520;13.352;2023-02-11T03:59:50;102406.03;;;8.70;57.03
31044;BME280;17710;52.520;13.352;2023-02-11T04:02:17;102417.41;;;8.96;56.58
31044;BME280;17710;52.520;13.352;2023-02-11T04:04:44;102403.38;;;8.73;56.91
31044;BME280;17710;52.520;13.352;2023-02-11T04:07:13;102400.78;;;8.71;57.50
31044;BME280;17710;52.520;13.352;2023-02-11T04:09:39;102400.75;;;8.80;57.45
31044;BME280;17710;52.520;13.352;2023-02-11T04:12:06;102398.13;;;8.77;57.70
31044;BME280;17710;52.520;13.352;2023-02-11T04:14:33;102405.16;;;8.74;57.53
31044;BME280;17710;52.520;13.352;2023-02-11T04:17:00;102404.28;;;8.70;58.16
31044;BME280;17710;52.520;13.352;2023-02-11T04:19:26;102403.38;;;8.73;57.96
31044;BME280;17710;52.520;13.352;2023-02-11T04:21:53;102406.06;;;8.55;58.63
31044;BME280;17710;52.520;13.352;2023-02-11T04:24:20;102405.19;;;8.56;59.10
31044;BME280;17710;52.520;13.352;2023-02-11T04:26:47;102409.59;;;8.66;58.87
31044;BME280;17710;52.520;13.352;2023-02-11T04:29:13;102401.63;;;8.81;58.36
31044;BME280;17710;52.520;13.352;2023-02-11T04:31:40;102406.03;;;8.82;58.38
31044;BME280;17710;52.520;13.352;2023-02-11T04:34:06;102396.34;;;8.83;58.63
31044;BME280;17710;52.520;13.352;2023-02-11T04:36:32;102405.13;;;8.92;58.19
31044;BME280;17710;52.520;13.352;2023-02-11T04:38:59;102393.72;;;8.81;58.77
31044;BME280;17710;52.520;13.352;2023-02-11T04:41:27;102389.38;;;8.62;59.78
31044;BME280;17710;52.520;13.352;2023-02-11T04:43:53;102385.84;;;8.78;59.83
31044;BME280;17710;52.520;13.352;2023-02-11T04:46:20;102384.06;;;8.75;59.62
31044;BME280;17710;52.520;13.352;2023-02-11T04:48:46;102389.38;;;8.63;60.33
31044;BME280;17710;52.520;13.352;2023-02-11T04:51:12;102388.50;;;8.64;60.78
31044;BME280;17710;52.520;13.352;2023-02-11T04:53:39;102385.81;;;8.79;60.43
31044;BME280;17710;52.520;13.352;2023-02-11T04:56:06;102380.56;;;8.70;60.61
31044;BME280;17710;52.520;13.352;2023-02-11T04:58:34;102370.84;;;8.98;60.17
31044;BME280;17710;52.520;13.352;2023-02-11T05:01:05;102365.53;;;9.03;59.46
31044;BME280;17710;52.520;13.352;2023-02-11T05:03:31;102360.25;;;9.10;59.18
31044;BME280;17710;52.520;13.352;2023-02-11T05:05:58;102361.19;;;8.87;60.40
31044;BME280;17710;52.520;13.352;2023-02-11T05:08:24;102362.06;;;8.96;60.60
31044;BME280;17710;52.520;13.352;2023-02-11T05:10:51;102350.66;;;8.91;60.43
31044;BME280;17710;52.520;13.352;2023-02-11T05:13:17;102347.09;;;9.00;60.54
31044;BME280;17710;52.520;13.352;2023-02-11T05:15:45;102347.94;;;9.06;60.08
31044;BME280;17710;52.520;13.352;2023-02-11T05:18:11;102343.53;;;9.11;59.85
31044;BME280;17710;52.520;13.352;2023-02-11T05:20:39;102333.94;;;8.97;60.96
31044;BME280;17710;52.520;13.352;2023-02-11T05:23:05;102341.03;;;8.75;61.71
31044;BME280;17710;52.520;13.352;2023-02-11T05:25:32;102326.03;;;8.88;61.29
31044;BME280;17710;52.520;13.352;2023-02-11T05:27:58;102318.16;;;8.82;61.57
31044;BME280;17710;52.520;13.352;2023-02-11T05:30:27;102312.03;;;8.78;61.99
31044;BME280;17710;52.520;13.352;2023-02-11T05:32:55;102326.97;;;8.76;62.37
31044;BME280;17710;52.520;13.352;2023-02-11T05:35:21;102320.84;;;8.71;62.52
31044;BME280;17710;52.520;13.352;2023-02-11T05:37:48;102323.34;;;9.03;62.01
31044;BME280;17710;52.520;13.352;2023-02-11T05:40:15;102307.63;;;8.82;62.71
31044;BME280;17710;52.520;13.352;2023-02-11T05:42:41;102304.06;;;8.96;62.10
31044;BME280;17710;52.520;13.352;2023-02-11T05:45:08;102302.25;;;9.03;62.41
31044;BME280;17710;52.520;13.352;2023-02-11T05:47:34;102298.84;;;8.78;63.18
31044;BME280;17710;52.520;13.352;2023-02-11T05:50:02;102299.75;;;8.72;63.59
31044;BME280;17710;52.520;13.352;2023-02-11T05:52:29;102293.63;;;8.63;64.48
31044;BME280;17710;52.520;13.352;2023-02-11T05:54:55;102312.91;;;8.74;64.22
31044;BME280;17710;52.520;13.352;2023-02-11T05:57:22;102306.75;;;8.86;64.33
31044;BME280;17710;52.520;13.352;2023-02-11T05:59:48;102309.31;;;8.95;64.13
31044;BME280;17710;52.520;13.352;2023-02-11T06:02:15;102308.47;;;8.87;63.85
31044;BME280;17710;52.520;13.352;2023-02-11T06:04:41;102307.50;;;9.07;63.94
31044;BME280;17710;52.520;13.352;2023-02-11T06:07:09;102312.88;;;8.92;64.27
31044;BME280;17710;52.520;13.352;2023-02-11T06:09:36;102327.72;;;9.11;63.94
31044;BME280;17710;52.520;13.352;2023-02-11T06:12:03;102325.03;;;9.20;63.34
31044;BME280;17710;52.520;13.352;2023-02-11T06:14:31;102328.53;;;9.21;63.78
31044;BME280;17710;52.520;13.352;2023-02-11T06:16:57;102320.66;;;9.13;64.50
31044;BME280;17710;52.520;13.352;2023-02-11T06:19:24;102317.22;;;8.98;65.13
31044;BME280;17710;52.520;13.352;2023-02-11T06:21:50;102319.84;;;9.02;64.65
31044;BME280;17710;52.520;13.352;2023-02-11T06:24:18;102324.25;;;9.05;64.93
31044;BME280;17710;52.520;13.352;2023-02-11T06:26:44;102321.66;;;8.91;65.66
31044;BME280;17710;52.520;13.352;2023-02-11T06:29:11;102321.56;;;9.11;65.18
31044;BME280;17710;52.520;13.352;2023-02-11T06:31:38;102310.03;;;9.26;64.32
31044;BME280;17710;52.520;13.352;2023-02-11T06:34:05;102304.81;;;9.21;64.86
31044;BME280;17710;52.520;13.352;2023-02-11T06:36:31;102303.94;;;9.20;65.41
31044;BME280;17710;52.520;13.352;2023-02-11T06:38:58;102297.84;;;9.11;65.59
31044;BME280;17710;52.520;13.352;2023-02-11T06:41:26;102295.19;;;9.06;66.27
31044;BME280;17710;52.520;13.352;2023-02-11T06:43:55;102291.75;;;8.98;66.59
31044;BME280;17710;52.520;13.352;2023-02-11T06:46:22;102286.44;;;9.04;66.94
31044;BME280;17710;52.520;13.352;2023-02-11T06:48:48;102297.00;;;9.04;66.67
31044;BME280;17710;52.520;13.352;2023-02-11T06:51:15;102297.81;;;9.18;66.54
31044;BME280;17710;52.520;13.352;2023-02-11T06:53:43;102304.03;;;9.01;67.10
31044;BME280;17710;52.520;13.352;2023-02-11T06:56:12;102304.81;;;9.21;66.88
31044;BME280;17710;52.520;13.352;2023-02-11T06:58:40;102303.06;;;9.17;67.19
31044;BME280;17710;52.520;13.352;2023-02-11T07:01:09;102301.34;;;9.08;67.15
31044;BME280;17710;52.520;13.352;2023-02-11T07:03:39;102304.94;;;8.97;68.44
31044;BME280;17710;52.520;13.352;2023-02-11T07:06:09;102296.13;;;9.04;67.83
31044;BME280;17710;52.520;13.352;2023-02-11T07:08:37;102302.13;;;9.26;67.38
31044;BME280;17710;52.520;13.352;2023-02-11T07:11:08;102297.72;;;9.29;67.40
31044;BME280;17710;52.520;13.352;2023-02-11T07:13:34;102307.47;;;9.15;68.21
31044;BME280;17710;52.520;13.352;2023-02-11T07:16:04;102296.09;;;9.10;68.28
31044;BME280;17710;52.520;13.352;2023-02-11T07:18:31;102292.50;;;9.23;68.32
31044;BME280;17710;52.520;13.352;2023-02-11T07:20:57;102291.59;;;9.26;67.96
31044;BME280;17710;52.520;13.352;2023-02-11T07:23:24;102281.88;;;9.32;67.51
31044;BME280;17710;52.520;13.352;2023-02-11T07:25:50;102281.00;;;9.38;67.44
31044;BME280;17710;52.520;13.352;2023-02-11T07:28:17;102287.97;;;9.42;67.75
31044;BME280;17710;52.520;13.352;2023-02-11T07:30:44;102289.84;;;9.25;68.04
31044;BME280;17710;52.520;13.352;2023-02-11T07:33:14;102275.78;;;9.23;68.42
31044;BME280;17710;52.520;13.352;2023-02-11T07:35:41;102278.25;;;9.47;67.61
31044;BME280;17710;52.520;13.352;2023-02-11T07:38:08;102277.47;;;9.33;67.68
31044;BME280;17710;52.520;13.352;2023-02-11T07:40:35;102266.19;;;9.11;68.67
31044;BME280;17710;52.520;13.352;2023-02-11T07:43:01;102273.91;;;9.41;67.78
31044;BME280;17710;52.520;13.352;2023-02-11T07:45:29;102275.81;;;9.18;68.42
31044;BME280;17710;52.520;13.352;2023-02-11T07:47:55;102275.75;;;9.29;68.31
31044;BME280;17710;52.520;13.352;2023-02-11T07:50:23;102275.75;;;9.29;68.07
31044;BME280;17710;52.520;13.352;2023-02-11T07:52:50;102266.03;;;9.37;67.50
31044;BME280;17710;52.520;13.352;2023-02-11T07:55:16;102266.78;;;9.57;67.00
31044;BME280;17710;52.520;13.352;2023-02-11T07:57:43;102275.47;;;9.68;66.23
31044;BME280;17710;52.520;13.352;2023-02-11T08:00:10;102281.78;;;9.47;66.85
31044;BME280;17710;52.520;13.352;2023-02-11T08:02:37;102296.69;;;9.53;66.67
31044;BME280;17710;52.520;13.352;2023-02-11T08:05:04;102276.31;;;9.72;66.08
31044;BME280;17710;52.520;13.352;2023-02-11T08:07:31;102273.72;;;9.67;66.67
31044;BME280;17710;52.520;13.352;2023-02-11T08:09:58;102297.63;;;9.50;67.44
31044;BME280;17710;52.520;13.352;2023-02-11T08:12:24;102289.50;;;9.73;66.91
31044;BME280;17710;52.520;13.352;2023-02-11T08:14:51;102303.59;;;9.72;66.65
31044;BME280;17710;52.520;13.352;2023-02-11T08:17:17;102301.91;;;9.64;67.42
31044;BME280;17710;52.520;13.352;2023-02-11T08:19:44;102324.84;;;9.54;68.11
31044;BME280;17710;52.520;13.352;2023-02-11T08:22:10;102333.47;;;9.79;67.24
31044;BME280;17710;52.520;13.352;2023-02-11T08:24:38;102329.00;;;9.90;66.85
31044;BME280;17710;52.520;13.352;2023-02-11T08:27:04;102328.28;;;9.71;67.59
31044;BME280;17710;52.520;13.352;2023-02-11T08:29:31;102329.19;;;9.64;67.97
31044;BME280;17710;52.520;13.352;2023-02-11T08:31:57;102326.38;;;9.85;67.31
31044;BME280;17710;52.520;13.352;2023-02-11T08:34:24;102326.28;;;10.00;67.04
31044;BME280;17710;52.520;13.352;2023-02-11T08:36:51;102324.44;;;10.07;67.02
31044;BME280;17710;52.520;13.352;2023-02-11T08:39:21;102326.22;;;10.08;66.92
31044;BME280;17710;52.520;13.352;2023-02-11T08:41:50;102328.91;;;10.04;67.30
31044;BME280;17710;52.520;13.352;2023-02-11T08:44:17;102331.53;;;10.04;67.19
31044;BME280;17710;52.520;13.352;2023-02-11T08:46:45;102345.88;;;9.69;68.72
31044;BME280;17710;52.520;13.352;2023-02-11T08:49:12;102350.28;;;9.69;68.64
31044;BME280;17710;52.520;13.352;2023-02-11T08:51:39;102331.78;;;9.67;68.64
31044;BME280;17710;52.520;13.352;2023-02-11T08:54:06;102317.66;;;9.77;68.86
31044;BME280;17710;52.520;13.352;2023-02-11T08:56:34;102310.47;;;9.91;67.98
31044;BME280;17710;52.520;13.352;2023-02-11T08:59:02;102305.06;;;10.10;67.44
31044;BME280;17710;52.520;13.352;2023-02-11T09:01:30;102304.09;;;10.23;66.61
31044;BME280;17710;52.520;13.352;2023-02-11T09:03:57;102311.97;;;10.26;66.41
31044;BME280;17710;52.520;13.352;2023-02-11T09:06:26;102306.69;;;10.26;67.07
31044;BME280;17710;52.520;13.352;2023-02-11T09:08:55;102298.31;;;9.72;68.86
31044;BME280;17710;52.520;13.352;2023-02-11T09:11:25;102305.13;;;10.00;68.38
31044;BME280;17710;52.520;13.352;2023-02-11T09:13:52;102302.38;;;10.16;67.61
31044;BME280;17710;52.520;13.352;2023-02-11T09:16:21;102314.75;;;10.11;67.77
31044;BME280;17710;52.520;13.352;2023-02-11T09:18:48;102317.47;;;10.02;68.36
31044;BME280;17710;52.520;13.352;2023-02-11T09:21:17;102310.41;;;10.04;68.24
31044;BME280;17710;52.520;13.352;2023-02-11T09:23:44;102317.72;;;9.68;69.67
31044;BME280;17710;52.520;13.352;2023-02-11T09:26:15;102325.72;;;9.56;70.69
31044;BME280;17710;52.520;13.352;2023-02-11T09:28:42;102344.03;;;9.80;70.05
31044;BME280;17710;52.520;13.352;2023-02-11T09:31:11;102331.59;;;9.91;68.87
31044;BME280;17710;52.520;13.352;2023-02-11T09:33:40;102326.97;;;10.25;67.72
31044;BME280;17710;52.520;13.352;2023-02-11T09:36:13;102320.06;;;10.06;68.55
31044;BME280;17710;52.520;13.352;2023-02-11T09:38:40;102332.31;;;10.16;68.07
31044;BME280;17710;52.520;13.352;2023-02-11T09:41:22;102348.31;;;9.96;69.36
31044;BME280;17710;52.520;13.352;2023-02-11T09:43:52;102343.75;;;10.20;68.42
31044;BME280;17710;52.520;13.352;2023-02-11T09:46:20;102349.78;;;10.37;67.66
31044;BME280;17710;52.520;13.352;2023-02-11T09:48:52;102346.53;;;9.98;69.28
31044;BME280;17710;52.520;13.352;2023-02-11T09:51:38;102340.56;;;9.72;70.06
31044;BME280;17710;52.520;13.352;2023-02-11T09:54:12;102362.44;;;9.91;69.75
31044;BME280;17710;52.520;13.352;2023-02-11T09:56:43;102366.56;;;10.28;68.59
31044;BME280;17710;52.520;13.352;2023-02-11T09:59:12;102364.00;;;10.22;68.65
31044;BME280;17710;52.520;13.352;2023-02-11T10:01:44;102375.50;;;10.06;69.85
31044;BME280;17710;52.520;13.352;2023-02-11T10:04:21;102375.28;;;10.41;68.44
31044;BME280;17710;52.520;13.352;2023-02-11T10:06:54;102365.78;;;10.11;69.78
31044;BME280;17710;52.520;13.352;2023-02-11T10:09:48;102363.19;;;10.07;70.32
31044;BME280;17710;52.520;13.352;2023-02-11T10:12:28;102371.13;;;10.05;70.22
31044;BME280;17710;52.520;13.352;2023-02-11T10:15:27;102375.50;;;10.11;70.65
31044;BME280;17710;52.520;13.352;2023-02-11T10:18:28;102357.75;;;10.29;70.05
31044;BME280;17710;52.520;13.352;2023-02-11T10:21:07;102361.91;;;10.56;69.37
31044;BME280;17710;52.520;13.352;2023-02-11T10:23:41;102365.78;;;10.13;71.45
31044;BME280;17710;52.520;13.352;2023-02-11T10:26:12;102360.16;;;10.54;69.78
31044;BME280;17710;52.520;13.352;2023-02-11T10:28:44;102373.41;;;10.52;69.79
31044;BME280;17710;52.520;13.352;2023-02-11T10:31:14;102374.06;;;10.74;68.85
31044;BME280;17710;52.520;13.352;2023-02-11T10:33:44;102374.81;;;10.84;68.35
31044;BME280;17710;52.520;13.352;2023-02-11T10:36:15;102385.41;;;10.84;68.68
31044;BME280;17710;52.520;13.352;2023-02-11T10:38:43;102386.84;;;10.26;71.00
31044;BME280;17710;52.520;13.352;2023-02-11T10:41:14;102374.34;;;10.44;70.17
31044;BME280;17710;52.520;13.352;2023-02-11T10:43:42;102366.47;;;10.39;70.80
31044;BME280;17710;52.520;13.352;2023-02-11T10:46:14;102366.31;;;10.56;70.29
31044;BME280;17710;52.520;13.352;2023-02-11T10:48:44;102355.69;;;10.60;70.40
31044;BME280;17710;52.520;13.352;2023-02-11T10:51:20;102345.00;;;10.72;70.07
31044;BME280;17710;52.520;13.352;2023-02-11T10:53:48;102345.31;;;10.42;71.40
31044;BME280;17710;52.520;13.352;2023-02-11T10:56:21;102355.91;;;10.39;71.57
31044;BME280;17710;52.520;13.352;2023-02-11T10:58:55;102352.97;;;10.68;70.89
31044;BME280;17710;52.520;13.352;2023-02-11T11:01:36;102347.56;;;10.80;70.13
31044;BME280;17710;52.520;13.352;2023-02-11T11:04:03;102344.16;;;10.67;70.59
31044;BME280;17710;52.520;13.352;2023-02-11T11:06:33;102340.72;;;10.62;71.14
31044;BME280;17710;52.520;13.352;2023-02-11T11:09:00;102336.34;;;10.57;71.69
31044;BME280;17710;52.520;13.352;2023-02-11T11:11:26;102346.22;;;10.38;72.35
31044;BME280;17710;52.520;13.352;2023-02-11T11:13:55;102340.72;;;10.58;72.00
31044;BME280;17710;52.520;13.352;2023-02-11T11:16:23;102340.31;;;10.06;74.08
31044;BME280;17710;52.520;13.352;2023-02-11T11:18:52;102358.59;;;10.34;73.28
31044;BME280;17710;52.520;13.352;2023-02-11T11:21:21;102346.19;;;10.43;72.70
31044;BME280;17710;52.520;13.352;2023-02-11T11:23:53;102342.50;;;10.57;72.69
31044;BME280;17710;52.520;13.352;2023-02-11T11:26:21;102334.75;;;10.42;73.24
31044;BME280;17710;52.520;13.352;2023-02-11T11:28:55;102330.34;;;10.38;73.44
31044;BME280;17710;52.520;13.352;2023-02-11T11:31:26;102317.28;;;10.24;74.36
31044;BME280;17710;52.520;13.352;2023-02-11T11:33:56;102331.09;;;10.55;73.45
31044;BME280;17710;52.520;13.352;2023-02-11T11:36:31;102345.13;;;10.59;72.96
31044;BME280;17710;52.520;13.352;2023-02-11T11:39:02;102334.69;;;10.48;73.63
31044;BME280;17710;52.520;13.352;2023-02-11T11:41:48;102349.59;;;10.55;72.76
31044;BME280;17710;52.520;13.352;2023-02-11T11:44:22;102342.81;;;10.25;74.41
31044;BME280;17710;52.520;13.352;2023-02-11T11:46:54;102328.63;;;10.37;74.16
31044;BME280;17710;52.520;13.352;2023-02-11T11:49:34;102332.53;;;9.87;75.79
31044;BME280;17710;52.520;13.352;2023-02-11T11:52:10;102340.34;;;9.99;75.85
31044;BME280;17710;52.520;13.352;2023-02-11T11:54:40;102337.56;;;10.24;75.18
31044;BME280;17710;52.520;13.352;2023-02-11T11:57:11;102337.22;;;10.57;73.65
31044;BME280;17710;52.520;13.352;2023-02-11T11:59:40;102326.63;;;10.60;73.19
31044;BME280;17710;52.520;13.352;2023-02-11T12:02:34;102325.94;;;10.43;73.73
31044;BME280;17710;52.520;13.352;2023-02-11T12:05:08;102339.72;;;10.71;73.04
31044;BME280;17710;52.520;13.352;2023-02-11T12:07:52;102352.25;;;10.51;73.68
31044;BME280;17710;52.520;13.352;2023-02-11T12:10:58;102337.13;;;10.69;72.89
31044;BME280;17710;52.520;13.352;2023-02-11T12:13:37;102315.88;;;10.75;72.35
31044;BME280;17710;52.520;13.352;2023-02-11T12:16:14;102328.09;;;10.87;72.41
31044;BME280;17710;52.520;13.352;2023-02-11T12:21:42;102331.91;;;11.35;70.14
31044;BME280;17710;52.520;13.352;2023-02-11T12:24:26;102326.81;;;11.17;70.19
31044;BME280;17710;52.520;13.352;2023-02-11T12:27:01;102323.16;;;11.29;70.42
31044;BME280;17710;52.520;13.352;2023-02-11T12:29:35;102336.44;;;10.48;72.83
31044;BME280;17710;52.520;13.352;2023-02-11T12:32:20;102335.63;;;10.41;74.10
31044;BME280;17710;52.520;13.352;2023-02-11T12:35:07;102332.81;;;10.58;73.80
31044;BME280;17710;52.520;13.352;2023-02-11T12:38:02;102330.81;;;10.79;73.07
31044;BME280;17710;52.520;13.352;2023-02-11T12:40:40;102333.25;;;10.96;72.32
31044;BME280;17710;52.520;13.352;2023-02-11T12:43:17;102328.81;;;11.00;71.81
31044;BME280;17710;52.520;13.352;2023-02-11T12:45:52;102330.41;;;11.13;71.95
31044;BME280;17710;52.520;13.352;2023-02-11T12:48:38;102324.97;;;11.25;71.11
31044;BME280;17710;52.520;13.352;2023-02-11T12:51:15;102332.16;;;11.15;71.21
31044;BME280;17710;52.520;13.352;2023-02-11T12:54:03;102330.34;;;11.19;71.24
31044;BME280;17710;52.520;13.352;2023-02-11T12:56:41;102336.50;;;11.21;71.08
31044;BME280;17710;52.520;13.352;2023-02-11T12:59:22;102330.03;;;11.42;70.36
31044;BME280;17710;52.520;13.352;2023-02-11T13:01:51;102344.00;;;11.50;70.07
31044;BME280;17710;52.520;13.352;2023-02-11T13:04:22;102341.34;;;11.51;70.24
31044;BME280;17710;52.520;13.352;2023-02-11T13:06:56;102352.66;;;11.63;70.19
31044;BME280;17710;52.520;13.352;2023-02-11T13:09:32;102359.34;;;11.28;71.34